Time;durP1;ratioP1;P1;durP2;ratioP2;P2;SDS_P1;SDS_P2;PMS_P1;PMS_P2;Temp;Humidity;BMP_temperature;BMP_pressure;BME280_temperature;BME280_humidity;BME280_pressure;Samples;Min_cycle;Max_cycle;Signal;HPM_P1;HPM_P2
2023/07/20 00:02:16;;;;;;;8.27;3.88;;;16.40;96.60;;;;;;4945920;28;88129;-96
2023/07/20 00:04:42;;;;;;;6.25;3.58;;;16.40;96.40;;;;;;4940273;28;89162;-96
2023/07/20 00:07:12;;;;;;;8.20;4.10;;;16.40;96.30;;;;;;4923302;28;89130;-96
2023/07/20 00:09:40;;;;;;;6.10;3.63;;;16.30;96.20;;;;;;4940976;28;87711;-96
2023/07/20 00:12:06;;;;;;;8.50;3.72;;;16.30;96.40;;;;;;4929768;28;87834;-96
2023/07/20 00:14:32;;;;;;;9.27;3.97;;;16.30;96.40;;;;;;4940449;28;91745;-96
2023/07/20 00:16:58;;;;;;;11.68;3.70;;;16.30;96.40;;;;;;4938601;28;91570;-96
2023/07/20 00:19:25;;;;;;;7.05;3.85;;;16.20;96.30;;;;;;4942992;28;87594;-96
2023/07/20 00:21:52;;;;;;;9.40;4.10;;;16.20;96.20;;;;;;4940730;28;94721;-96
2023/07/20 00:24:17;;;;;;;9.25;4.05;;;16.20;96.30;;;;;;4930405;28;88275;-96
2023/07/20 00:26:50;;;;;;;7.32;3.80;;;16.10;96.50;;;;;;4944197;28;87889;-96
2023/07/20 00:29:16;;;;;;;7.03;3.90;;;16.10;96.70;;;;;;4934055;28;88018;-96
2023/07/20 00:31:43;;;;;;;8.00;4.13;;;16.00;96.80;;;;;;4943808;28;86469;-96
2023/07/20 00:34:09;;;;;;;6.50;3.95;;;16.00;96.90;;;;;;4926823;28;89423;-96
2023/07/20 00:36:35;;;;;;;9.55;4.75;;;15.90;97.10;;;;;;4932116;28;88830;-96
2023/07/20 00:39:00;;;;;;;7.90;3.70;;;15.90;97.20;;;;;;4935902;28;88862;-95
2023/07/20 00:41:36;;;;;;;10.05;4.13;;;15.90;97.30;;;;;;4943350;28;89687;-96
2023/07/20 00:44:03;;;;;;;6.13;3.70;;;15.80;97.30;;;;;;4943981;28;89364;-96
2023/07/20 00:46:29;;;;;;;8.15;4.07;;;15.80;97.30;;;;;;4947624;28;90579;-96
2023/07/20 00:48:57;;;;;;;6.78;3.95;;;15.80;97.30;;;;;;4961217;28;87006;-95
2023/07/20 00:51:25;;;;;;;5.85;3.78;;;15.80;97.40;;;;;;4929782;28;88017;-96
2023/07/20 00:53:51;;;;;;;10.57;3.67;;;15.80;97.30;;;;;;4924180;28;90720;-96
2023/07/20 00:56:18;;;;;;;8.60;4.10;;;15.80;97.40;;;;;;4921765;28;90074;-96
2023/07/20 00:58:53;;;;;;;8.45;3.70;;;15.80;97.30;;;;;;4956142;28;87409;-96
2023/07/20 01:01:18;;;;;;;9.48;3.90;;;15.80;97.30;;;;;;4944136;28;92333;-96
2023/07/20 01:03:44;;;;;;;7.03;3.60;;;15.80;97.30;;;;;;4941649;28;90795;-96
2023/07/20 01:06:36;;;;;;;13.55;3.83;;;15.80;97.20;;;;;;4938081;28;91604;-95
2023/07/20 01:09:24;;;;;;;6.68;3.22;;;15.90;97.10;;;;;;4964079;28;87569;-96
2023/07/20 01:12:20;;;;;;;9.73;3.58;;;15.80;96.90;;;;;;4943428;28;89210;-96
2023/07/20 01:14:48;;;;;;;5.75;3.03;;;15.80;96.90;;;;;;4958639;28;89061;-96
2023/07/20 01:17:15;;;;;;;8.63;3.28;;;15.80;97.00;;;;;;4942921;28;90190;-96
2023/07/20 01:19:40;;;;;;;9.65;3.38;;;15.80;96.80;;;;;;4940360;28;87587;-95
2023/07/20 01:22:32;;;;;;;7.53;3.03;;;15.80;96.70;;;;;;4940306;28;86906;-95
2023/07/20 01:25:20;;;;;;;6.10;3.00;;;15.80;96.70;;;;;;4958225;28;93485;-96
2023/07/20 01:28:34;;;;;;;4.32;3.03;;;15.80;96.60;;;;;;4938409;28;89993;-95
2023/07/20 01:31:19;;;;;;;9.15;3.90;;;15.80;96.40;;;;;;4959096;28;88545;-96
2023/07/20 01:33:47;;;;;;;8.95;2.67;;;15.90;96.40;;;;;;4941026;28;89055;-96
2023/07/20 01:36:13;;;;;;;9.23;2.88;;;15.90;96.20;;;;;;4924163;28;89248;-96
2023/07/20 01:38:40;;;;;;;7.60;3.05;;;15.90;96.30;;;;;;4940351;28;90482;-96
2023/07/20 01:41:06;;;;;;;8.68;2.92;;;15.90;96.00;;;;;;4936666;28;87671;-95
2023/07/20 01:43:31;;;;;;;11.85;3.05;;;15.90;96.10;;;;;;4944349;28;89441;-96
2023/07/20 01:45:58;;;;;;;6.40;3.00;;;15.90;96.10;;;;;;4939224;28;89103;-96
2023/07/20 01:48:24;;;;;;;7.78;2.97;;;15.90;96.00;;;;;;4956814;28;89011;-96
2023/07/20 01:50:50;;;;;;;6.72;2.80;;;15.90;96.10;;;;;;4939520;28;87816;-96
2023/07/20 01:53:17;;;;;;;7.10;3.50;;;15.90;96.00;;;;;;4958453;28;87907;-96
2023/07/20 01:55:43;;;;;;;8.38;3.22;;;15.90;96.10;;;;;;4940805;28;89918;-96
2023/07/20 01:58:09;;;;;;;10.57;3.85;;;15.90;96.10;;;;;;4956483;28;89503;-96
2023/07/20 02:00:37;;;;;;;10.30;3.30;;;15.90;96.10;;;;;;4940083;28;87119;-96
2023/07/20 02:03:03;;;;;;;9.90;3.67;;;15.90;96.00;;;;;;4953826;28;89186;-96
2023/07/20 02:05:28;;;;;;;9.05;3.03;;;15.90;96.10;;;;;;4938754;28;89281;-96
2023/07/20 02:07:54;;;;;;;8.40;3.38;;;15.90;96.00;;;;;;4955117;28;88929;-96
2023/07/20 02:10:20;;;;;;;9.27;3.72;;;15.80;96.00;;;;;;4945886;28;87230;-95
2023/07/20 02:12:47;;;;;;;7.38;3.10;;;15.80;96.00;;;;;;4940519;28;89265;-96
2023/07/20 02:15:16;;;;;;;9.00;3.40;;;15.80;96.00;;;;;;4939438;28;90323;-96
2023/07/20 02:17:43;;;;;;;6.93;2.90;;;15.70;96.10;;;;;;4897426;28;89097;-96
2023/07/20 02:20:10;;;;;;;7.85;2.95;;;15.70;96.20;;;;;;4940513;28;88654;-96
2023/07/20 02:22:37;;;;;;;13.88;3.60;;;15.70;96.20;;;;;;4922682;28;88085;-96
2023/07/20 02:25:04;;;;;;;9.10;4.00;;;15.70;96.20;;;;;;4939908;28;89991;-96
2023/07/20 02:27:30;;;;;;;13.48;3.42;;;15.70;96.40;;;;;;4937898;28;89093;-95
2023/07/20 02:29:56;;;;;;;15.70;4.50;;;15.70;96.30;;;;;;4946371;28;87092;-96
2023/07/20 02:32:22;;;;;;;9.88;3.40;;;15.60;96.30;;;;;;4929560;28;88334;-95
2023/07/20 02:34:49;;;;;;;11.55;3.50;;;15.60;96.40;;;;;;4925010;28;90934;-96
2023/07/20 02:37:16;;;;;;;11.30;3.55;;;15.60;96.50;;;;;;4929433;28;90148;-94
2023/07/20 02:39:42;;;;;;;9.68;3.83;;;15.60;96.50;;;;;;4940991;28;87234;-96
2023/07/20 02:42:08;;;;;;;11.10;3.50;;;15.50;96.60;;;;;;4941708;28;89374;-96
2023/07/20 02:44:33;;;;;;;10.13;3.60;;;15.50;96.80;;;;;;4932041;28;89593;-96
2023/07/20 02:46:59;;;;;;;10.40;3.58;;;15.50;96.90;;;;;;4941673;28;91322;-95
2023/07/20 02:49:25;;;;;;;17.50;3.83;;;15.50;97.00;;;;;;4931418;28;87556;-96
2023/07/20 02:51:51;;;;;;;6.70;3.70;;;15.50;97.00;;;;;;4930166;28;88400;-96
2023/07/20 02:54:17;;;;;;;9.98;4.38;;;15.50;97.10;;;;;;4960313;28;89362;-95
2023/07/20 02:56:42;;;;;;;9.77;4.00;;;15.40;97.10;;;;;;4938435;28;88988;-96
2023/07/20 02:59:09;;;;;;;14.73;4.28;;;15.40;97.00;;;;;;4940354;28;87199;-96
2023/07/20 03:01:35;;;;;;;11.13;4.35;;;15.40;97.00;;;;;;4960089;28;86907;-96
2023/07/20 03:04:02;;;;;;;15.38;4.10;;;15.40;97.00;;;;;;4961342;28;90805;-96
2023/07/20 03:06:28;;;;;;;9.95;3.45;;;15.40;97.00;;;;;;4958009;28;89117;-96
2023/07/20 03:08:54;;;;;;;12.60;4.10;;;15.40;97.00;;;;;;4942884;28;88873;-96
2023/07/20 03:11:21;;;;;;;11.93;3.78;;;15.40;97.00;;;;;;4940984;28;88123;-95
2023/07/20 03:13:47;;;;;;;11.38;4.10;;;15.30;97.10;;;;;;4939034;28;90256;-96
2023/07/20 03:16:15;;;;;;;11.48;3.92;;;15.30;97.10;;;;;;4938973;28;90229;-96
2023/07/20 03:18:41;;;;;;;10.90;4.07;;;15.40;97.10;;;;;;4937505;28;87913;-96
2023/07/20 03:21:11;;;;;;;13.07;3.85;;;15.30;97.10;;;;;;4962443;28;87841;-95
2023/07/20 03:23:39;;;;;;;11.73;4.00;;;15.30;97.20;;;;;;4963558;28;88095;-96
2023/07/20 03:26:08;;;;;;;10.02;4.45;;;15.30;97.20;;;;;;4948768;28;88654;-96
2023/07/20 03:28:35;;;;;;;13.75;4.38;;;15.30;97.20;;;;;;4943774;28;87359;-96
2023/07/20 03:31:02;;;;;;;13.98;4.35;;;15.30;97.30;;;;;;4924627;28;88593;-95
2023/07/20 03:33:39;;;;;;;14.63;3.63;;;15.30;97.30;;;;;;4962202;28;89181;-95
2023/07/20 03:36:10;;;;;;;13.80;4.18;;;15.30;97.40;;;;;;4935505;28;91266;-96
2023/07/20 03:38:36;;;;;;;11.82;4.78;;;15.30;97.30;;;;;;4956274;28;88014;-96
2023/07/20 03:41:02;;;;;;;11.25;4.53;;;15.30;97.20;;;;;;4931248;28;89190;-96
2023/07/20 03:43:30;;;;;;;14.05;4.53;;;15.30;97.10;;;;;;4940810;28;91776;-96
2023/07/20 03:45:56;;;;;;;9.65;4.32;;;15.30;97.00;;;;;;4942111;28;87895;-95
2023/07/20 03:48:25;;;;;;;13.77;4.45;;;15.30;97.10;;;;;;4925267;28;87153;-96
2023/07/20 03:50:53;;;;;;;15.70;4.25;;;15.30;97.00;;;;;;4951677;28;89358;-96
2023/07/20 03:53:19;;;;;;;12.18;3.80;;;15.30;97.10;;;;;;4931785;28;89364;-96
2023/07/20 03:55:46;;;;;;;10.57;4.50;;;15.30;97.10;;;;;;4944011;28;89812;-96
2023/07/20 03:58:13;;;;;;;12.70;4.93;;;15.30;97.20;;;;;;4956818;28;88201;-96
2023/07/20 04:00:48;;;;;;;13.02;4.22;;;15.30;97.30;;;;;;4950263;28;87562;-96
2023/07/20 04:03:14;;;;;;;10.65;3.90;;;15.30;97.20;;;;;;4939401;28;90165;-96
2023/07/20 04:05:40;;;;;;;9.88;4.10;;;15.30;97.20;;;;;;4941422;28;89726;-96
2023/07/20 04:08:07;;;;;;;13.95;4.65;;;15.30;97.30;;;;;;4933435;28;89122;-96
2023/07/20 04:10:53;;;;;;;13.93;5.43;;;15.40;97.40;;;;;;4942427;28;88423;-96
2023/07/20 04:13:19;;;;;;;11.85;5.65;;;15.40;97.50;;;;;;4949224;28;94688;-96
2023/07/20 04:15:45;;;;;;;11.90;5.07;;;15.40;97.60;;;;;;4943128;28;89255;-96
2023/07/20 04:18:12;;;;;;;24.50;6.90;;;15.40;97.60;;;;;;4947958;28;87193;-96
2023/07/20 04:20:40;;;;;;;15.27;5.65;;;15.40;97.70;;;;;;4951711;28;88485;-96
2023/07/20 04:23:06;;;;;;;13.68;6.03;;;15.40;97.70;;;;;;4935734;28;90680;-96
2023/07/20 04:25:38;;;;;;;14.98;6.15;;;15.50;97.70;;;;;;4932457;28;91110;-96
2023/07/20 04:28:08;;;;;;;20.97;7.37;;;15.50;97.80;;;;;;4932194;28;87989;-96
2023/07/20 04:30:36;;;;;;;19.23;7.80;;;15.60;97.80;;;;;;4956260;28;87583;-96
2023/07/20 04:33:02;;;;;;;15.65;7.68;;;15.60;97.70;;;;;;4931074;28;90511;-96
2023/07/20 04:35:52;;;;;;;14.48;8.35;;;15.60;97.80;;;;;;4929781;28;90093;-96
2023/07/20 04:38:19;;;;;;;19.10;9.25;;;15.60;97.90;;;;;;4916992;28;87700;-96
2023/07/20 04:41:03;;;;;;;26.58;10.57;;;15.60;97.90;;;;;;4918597;28;88463;-95
2023/07/20 04:43:29;;;;;;;17.17;10.00;;;15.60;97.90;;;;;;4946369;28;95305;-96
2023/07/20 04:45:58;;;;;;;16.95;10.00;;;15.70;98.00;;;;;;4943553;28;91696;-95
2023/07/20 04:48:25;;;;;;;19.80;9.88;;;15.70;98.00;;;;;;4934173;28;88784;-96
2023/07/20 04:50:51;;;;;;;19.67;10.13;;;15.80;98.10;;;;;;4936419;28;88186;-95
2023/07/20 04:53:17;;;;;;;18.90;9.77;;;15.80;98.00;;;;;;4932852;28;90558;-96
2023/07/20 04:55:50;;;;;;;21.33;9.52;;;15.80;97.90;;;;;;4957347;28;88290;-96
2023/07/20 04:58:17;;;;;;;20.10;10.10;;;15.80;97.90;;;;;;4943463;28;87260;-96
2023/07/20 05:00:43;;;;;;;25.77;10.27;;;15.90;97.90;;;;;;4958662;28;87098;-96
2023/07/20 05:03:11;;;;;;;22.92;10.07;;;15.90;97.80;;;;;;4945077;28;90958;-96
2023/07/20 05:05:36;;;;;;;22.02;9.73;;;15.90;97.80;;;;;;4942214;28;88485;-96
2023/07/20 05:08:04;;;;;;;19.92;10.32;;;16.00;97.70;;;;;;4934253;28;87561;-96
2023/07/20 05:10:30;;;;;;;20.92;10.90;;;16.10;97.70;;;;;;4964854;28;87518;-96
2023/07/20 05:12:56;;;;;;;18.17;10.57;;;16.10;97.60;;;;;;4923910;28;90065;-96
2023/07/20 05:15:25;;;;;;;24.15;10.68;;;16.20;97.60;;;;;;4958282;28;87872;-96
2023/07/20 05:17:52;;;;;;;24.08;10.65;;;16.20;97.60;;;;;;4948145;28;87206;-96
2023/07/20 05:20:21;;;;;;;23.02;10.60;;;16.30;97.50;;;;;;4940659;28;89291;-94
2023/07/20 05:22:48;;;;;;;28.13;11.27;;;16.30;97.50;;;;;;4961919;28;89124;-96
2023/07/20 05:25:14;;;;;;;19.13;9.63;;;16.30;97.40;;;;;;4934783;28;90049;-96
2023/07/20 05:27:40;;;;;;;25.17;10.23;;;16.40;97.30;;;;;;4942457;28;87313;-96
2023/07/20 05:30:09;;;;;;;24.95;9.35;;;16.40;97.20;;;;;;4941115;28;88744;-96
2023/07/20 05:32:35;;;;;;;20.85;9.70;;;16.50;97.20;;;;;;4936940;28;88962;-96
2023/07/20 05:35:00;;;;;;;26.95;10.77;;;16.50;97.20;;;;;;4935040;28;90278;-96
2023/07/20 05:37:26;;;;;;;19.17;10.00;;;16.60;96.90;;;;;;4933045;28;88565;-96
2023/07/20 05:39:52;;;;;;;24.67;10.07;;;16.60;97.00;;;;;;4932722;28;88488;-96
2023/07/20 05:42:17;;;;;;;22.95;10.50;;;16.60;97.00;;;;;;4939873;28;90833;-96
2023/07/20 05:44:43;;;;;;;20.75;10.45;;;16.70;96.90;;;;;;4929439;28;89129;-96
2023/07/20 05:47:09;;;;;;;22.80;11.05;;;16.80;96.90;;;;;;4946921;28;88146;-96
2023/07/20 05:49:38;;;;;;;19.08;10.73;;;16.80;96.70;;;;;;4939941;28;89519;-96
2023/07/20 05:52:05;;;;;;;23.73;12.30;;;16.90;96.90;;;;;;4938923;28;89888;-96
2023/07/20 05:54:31;;;;;;;23.83;12.73;;;16.90;96.90;;;;;;4940094;28;90666;-96
2023/07/20 05:56:56;;;;;;;18.90;12.27;;;17.00;96.50;;;;;;4941857;28;87882;-96
2023/07/20 05:59:23;;;;;;;30.30;13.68;;;17.00;96.30;;;;;;4937981;28;88662;-96
2023/07/20 06:02:15;;;;;;;25.75;13.10;;;17.10;96.10;;;;;;4937102;28;90423;-95
2023/07/20 06:04:41;;;;;;;20.92;12.00;;;17.20;95.80;;;;;;4941489;28;95938;-96
2023/07/20 06:07:08;;;;;;;22.10;13.93;;;17.20;96.00;;;;;;4938360;28;87755;-96
2023/07/20 06:12:57;;;;;;;22.67;13.57;;;17.40;95.50;;;;;;4969821;22;87670;-92
2023/07/20 06:15:38;;;;;;;22.13;14.05;;;17.40;95.60;;;;;;4956597;28;88705;-90
2023/07/20 06:18:04;;;;;;;23.40;13.40;;;17.50;95.50;;;;;;4938113;28;87673;-89
2023/07/20 06:20:30;;;;;;;20.88;13.88;;;17.60;94.90;;;;;;4937167;28;89244;-90
2023/07/20 06:22:56;;;;;;;21.98;13.45;;;17.70;94.80;;;;;;4935430;28;90488;-89
2023/07/20 06:25:21;;;;;;;25.08;13.55;;;17.70;94.20;;;;;;4938576;28;91276;-88
2023/07/20 06:27:53;;;;;;;24.08;14.10;;;17.80;94.30;;;;;;4936428;28;88522;-89
2023/07/20 06:30:19;;;;;;;22.63;13.93;;;17.80;94.20;;;;;;4937898;28;90903;-90
2023/07/20 06:32:45;;;;;;;23.27;13.57;;;17.90;94.00;;;;;;4936114;28;91385;-86
2023/07/20 06:35:11;;;;;;;26.33;14.75;;;18.00;94.20;;;;;;4936086;28;91346;-88
2023/07/20 06:37:36;;;;;;;20.27;14.05;;;18.00;93.90;;;;;;4955261;28;87092;-87
2023/07/20 06:40:04;;;;;;;22.38;13.10;;;18.00;93.60;;;;;;4935795;28;89746;-89
2023/07/20 06:42:31;;;;;;;17.70;12.43;;;18.10;93.70;;;;;;4935563;28;91243;-88
2023/07/20 06:44:57;;;;;;;20.98;12.88;;;18.10;93.50;;;;;;4934907;28;91110;-88
2023/07/20 06:47:26;;;;;;;21.67;14.13;;;18.20;93.10;;;;;;4936159;28;87731;-88
2023/07/20 06:49:52;;;;;;;23.08;13.45;;;18.20;93.10;;;;;;4945051;28;90931;-88
2023/07/20 06:52:18;;;;;;;20.95;12.85;;;18.20;93.00;;;;;;4955495;28;89049;-87
2023/07/20 06:54:44;;;;;;;20.58;11.88;;;18.30;93.10;;;;;;4955134;28;89229;-85
2023/07/20 06:57:10;;;;;;;17.38;10.55;;;18.40;92.80;;;;;;4954678;28;87918;-87
2023/07/20 06:59:35;;;;;;;14.43;10.23;;;18.50;92.70;;;;;;4937728;28;90559;-85
2023/07/20 07:02:01;;;;;;;20.13;12.18;;;18.50;92.10;;;;;;4939196;28;94058;-88
2023/07/20 07:04:27;;;;;;;17.50;11.25;;;18.60;92.70;;;;;;4937519;28;91185;-87
2023/07/20 07:06:53;;;;;;;14.55;10.68;;;18.70;92.30;;;;;;4929462;28;87870;-88
2023/07/20 07:09:19;;;;;;;15.45;10.25;;;18.80;91.70;;;;;;4955415;28;86794;-83
2023/07/20 07:11:44;;;;;;;21.73;10.88;;;18.80;91.40;;;;;;4954098;28;87955;-83
2023/07/20 07:14:12;;;;;;;17.48;10.30;;;18.90;91.10;;;;;;4932575;28;91636;-86
2023/07/20 07:16:38;;;;;;;14.88;10.82;;;19.00;91.00;;;;;;4951186;28;88510;-84
2023/07/20 07:19:05;;;;;;;14.75;9.20;;;19.00;91.00;;;;;;4954536;28;87967;-85
2023/07/20 07:21:31;;;;;;;15.35;8.65;;;19.10;91.20;;;;;;4937769;28;91305;-87
2023/07/20 07:23:57;;;;;;;14.52;10.40;;;19.20;90.90;;;;;;4950317;28;91165;-88
2023/07/20 07:26:24;;;;;;;13.20;8.68;;;19.30;90.90;;;;;;4937836;28;87885;-87
2023/07/20 07:28:50;;;;;;;16.67;9.32;;;19.40;90.70;;;;;;4938066;28;89008;-87
2023/07/20 07:31:15;;;;;;;17.20;9.23;;;19.50;90.40;;;;;;4939370;28;91505;-87
2023/07/20 07:33:41;;;;;;;12.98;8.15;;;19.60;90.40;;;;;;4957505;28;88015;-85
2023/07/20 07:36:07;;;;;;;12.07;7.82;;;19.60;89.00;;;;;;4939763;28;87574;-84
2023/07/20 07:38:32;;;;;;;14.55;7.07;;;19.70;89.30;;;;;;4938076;28;89369;-86
2023/07/20 07:40:59;;;;;;;12.60;7.28;;;19.80;88.90;;;;;;4938382;28;92578;-86
2023/07/20 07:43:24;;;;;;;14.45;8.10;;;19.80;87.40;;;;;;4937607;28;90887;-86
2023/07/20 07:45:50;;;;;;;9.45;5.75;;;19.80;88.30;;;;;;4939526;28;87736;-86
2023/07/20 07:48:17;;;;;;;16.55;8.38;;;19.80;88.80;;;;;;4941332;28;90497;-89
2023/07/20 07:50:42;;;;;;;10.65;8.30;;;20.00;87.80;;;;;;4943232;28;90821;-85
2023/07/20 07:53:09;;;;;;;12.32;8.20;;;20.00;87.30;;;;;;4942794;28;91753;-86
2023/07/20 07:55:35;;;;;;;13.90;10.05;;;20.00;87.30;;;;;;4940284;28;87858;-83
2023/07/20 07:58:01;;;;;;;11.23;6.68;;;20.10;85.90;;;;;;4938963;28;96234;-86
2023/07/20 08:00:26;;;;;;;12.32;8.13;;;20.20;86.20;;;;;;4960044;28;88625;-83
2023/07/20 08:02:52;;;;;;;12.73;8.38;;;20.30;85.40;;;;;;4940693;28;91401;-75
2023/07/20 08:05:18;;;;;;;13.23;7.10;;;20.40;85.50;;;;;;4958055;28;89311;-80
2023/07/20 08:07:43;;;;;;;13.75;8.55;;;20.50;86.20;;;;;;4959919;28;87692;-77
2023/07/20 08:10:09;;;;;;;11.95;8.13;;;20.70;83.70;;;;;;4955264;28;88282;-80
2023/07/20 08:12:35;;;;;;;10.82;6.50;;;20.80;83.80;;;;;;4951636;28;90815;-80
2023/07/20 08:15:01;;;;;;;9.50;6.63;;;21.00;83.50;;;;;;4959572;28;87934;-80
2023/07/20 08:17:27;;;;;;;9.93;6.97;;;21.00;83.40;;;;;;4958641;28;87810;-79
2023/07/20 08:19:52;;;;;;;9.48;6.85;;;21.10;83.20;;;;;;4938113;28;91577;-80
2023/07/20 08:22:18;;;;;;;8.68;5.85;;;21.10;81.20;;;;;;4956356;28;86845;-79
2023/07/20 08:24:44;;;;;;;9.38;6.18;;;21.20;82.80;;;;;;4956505;28;88136;-80
2023/07/20 08:27:10;;;;;;;10.40;6.68;;;21.40;82.40;;;;;;4956256;28;88026;-80
2023/07/20 08:29:37;;;;;;;10.10;6.57;;;21.50;79.10;;;;;;4955927;28;90327;-80
2023/07/20 08:32:04;;;;;;;11.65;6.78;;;21.60;79.30;;;;;;4956373;28;89902;-80
2023/07/20 08:34:30;;;;;;;12.13;6.10;;;21.60;78.70;;;;;;4956667;28;87862;-82
2023/07/20 08:36:56;;;;;;;8.48;6.00;;;21.60;79.00;;;;;;4957032;28;88312;-78
2023/07/20 08:39:22;;;;;;;8.40;5.55;;;21.60;78.80;;;;;;4956618;28;89168;-78
2023/07/20 08:41:49;;;;;;;8.52;6.03;;;21.70;77.40;;;;;;4958694;28;88708;-79
2023/07/20 08:44:15;;;;;;;15.57;6.15;;;21.60;77.50;;;;;;4939380;28;87456;-79
2023/07/20 08:46:42;;;;;;;7.63;4.80;;;21.60;78.00;;;;;;4956934;28;87275;-79
2023/07/20 08:49:08;;;;;;;6.82;3.97;;;21.60;75.40;;;;;;4956886;28;87863;-79
2023/07/20 08:51:36;;;;;;;8.25;4.78;;;21.50;75.70;;;;;;4956673;28;88770;-79
2023/07/20 08:54:02;;;;;;;7.68;4.63;;;21.50;76.00;;;;;;4957346;28;88566;-79
2023/07/20 08:56:29;;;;;;;5.50;3.95;;;21.60;76.10;;;;;;4954758;28;89351;-79
2023/07/20 08:58:56;;;;;;;8.45;5.22;;;21.70;77.60;;;;;;4956478;28;88327;-79
2023/07/20 09:01:22;;;;;;;9.27;5.40;;;21.90;76.30;;;;;;4955881;28;88562;-79
2023/07/20 09:03:48;;;;;;;7.95;4.63;;;22.00;75.00;;;;;;4937595;28;87740;-79
2023/07/20 09:06:15;;;;;;;5.57;4.38;;;22.00;76.40;;;;;;4958090;28;88024;-79
2023/07/20 09:08:41;;;;;;;8.63;4.35;;;22.20;75.60;;;;;;4954909;28;88203;-79
2023/07/20 09:11:08;;;;;;;8.68;4.78;;;22.30;72.60;;;;;;4957186;28;87426;-79
2023/07/20 09:13:34;;;;;;;7.03;4.10;;;22.30;71.90;;;;;;4956357;28;87672;-77
2023/07/20 09:16:00;;;;;;;5.28;3.75;;;22.40;74.20;;;;;;4937872;28;88287;-77
2023/07/20 09:18:30;;;;;;;6.15;3.50;;;22.50;73.70;;;;;;4937927;28;93364;-77
2023/07/20 09:21:04;;;;;;;7.15;2.90;;;22.70;70.00;;;;;;4955817;28;88902;-77
2023/07/20 09:23:34;;;;;;;4.25;3.28;;;22.70;69.20;;;;;;4956561;28;87634;-77
2023/07/20 09:26:00;;;;;;;6.20;2.85;;;22.80;68.90;;;;;;4956262;28;87804;-79
2023/07/20 09:28:26;;;;;;;4.47;1.88;;;22.90;72.40;;;;;;4955758;28;90044;-79
2023/07/20 09:30:53;;;;;;;6.30;2.47;;;23.10;71.00;;;;;;4955513;28;88505;-80
2023/07/20 09:33:22;;;;;;;3.88;2.40;;;23.30;69.70;;;;;;4937408;28;87744;-79
2023/07/20 09:35:48;;;;;;;2.97;1.83;;;23.40;66.50;;;;;;4956238;28;88046;-77
2023/07/20 09:38:15;;;;;;;4.38;1.60;;;23.50;64.30;;;;;;4955436;28;89073;-77
2023/07/20 09:40:42;;;;;;;3.67;2.20;;;23.40;64.90;;;;;;4954941;28;94734;-79
2023/07/20 09:43:11;;;;;;;3.65;1.80;;;23.40;65.20;;;;;;4955913;28;88753;-77
2023/07/20 09:45:43;;;;;;;5.15;2.40;;;23.60;66.90;;;;;;4956087;28;87566;-77
2023/07/20 09:48:10;;;;;;;3.40;2.40;;;23.70;64.70;;;;;;4956898;28;88333;-78
2023/07/20 09:50:44;;;;;;;3.15;1.80;;;23.70;64.60;;;;;;4932674;28;90738;-77
2023/07/20 09:53:14;;;;;;;3.50;1.92;;;24.00;66.90;;;;;;4937667;28;88160;-78
2023/07/20 09:55:41;;;;;;;3.85;1.50;;;24.10;63.40;;;;;;4937670;28;89304;-79
2023/07/20 09:58:09;;;;;;;2.85;2.05;;;24.00;61.80;;;;;;4937973;28;91786;-79
2023/07/20 10:00:37;;;;;;;4.18;2.17;;;24.00;61.20;;;;;;4955155;28;88097;-80
2023/07/20 10:03:04;;;;;;;4.82;1.77;;;24.00;62.20;;;;;;4939111;28;87526;-80
2023/07/20 10:05:35;;;;;;;4.22;1.75;;;24.10;62.20;;;;;;4955839;28;88191;-80
2023/07/20 10:08:02;;;;;;;3.17;1.38;;;24.20;61.30;;;;;;4954967;28;89264;-80
2023/07/20 10:10:29;;;;;;;1.75;1.10;;;24.10;58.70;;;;;;4949535;28;88323;-78
2023/07/20 10:12:58;;;;;;;3.83;1.45;;;24.10;60.90;;;;;;4948171;28;87837;-79
2023/07/20 10:15:35;;;;;;;2.17;1.45;;;24.20;60.50;;;;;;4947680;28;88305;-80
2023/07/20 10:18:29;;;;;;;4.13;1.67;;;24.20;59.20;;;;;;4944856;28;87976;-80
2023/07/20 10:20:56;;;;;;;1.58;1.40;;;24.20;61.40;;;;;;4942810;28;92401;-78
2023/07/20 10:23:22;;;;;;;2.38;1.40;;;24.30;59.30;;;;;;4942565;28;87606;-81
2023/07/20 10:25:49;;;;;;;2.20;1.30;;;24.50;59.70;;;;;;4947815;28;87484;-79
2023/07/20 10:28:16;;;;;;;2.95;1.58;;;24.60;59.30;;;;;;4947482;28;88965;-83
2023/07/20 10:30:42;;;;;;;5.72;2.17;;;24.60;58.40;;;;;;4950923;28;88121;-80
2023/07/20 10:33:09;;;;;;;2.97;1.13;;;24.60;59.60;;;;;;4955435;28;88461;-78
2023/07/20 10:35:54;;;;;;;4.40;0.98;;;24.80;58.40;;;;;;4936839;28;90877;-78
2023/07/20 10:38:37;;;;;;;2.40;1.20;;;24.80;58.10;;;;;;4954042;28;88606;-79
2023/07/20 10:41:03;;;;;;;2.47;1.00;;;24.80;56.20;;;;;;4954575;28;87931;-78
2023/07/20 10:43:30;;;;;;;1.33;0.80;;;24.90;56.40;;;;;;4955299;28;87380;-81
2023/07/20 10:45:55;;;;;;;2.88;1.05;;;25.00;58.30;;;;;;4954585;28;87507;-78
2023/07/20 10:48:23;;;;;;;1.60;0.90;;;25.30;56.10;;;;;;4954512;28;88343;-79
2023/07/20 10:51:33;;;;;;;2.10;0.80;;;25.50;54.40;;;;;;4955218;28;87147;-78
2023/07/20 10:54:02;;;;;;;1.40;0.70;;;25.60;57.40;;;;;;4906891;28;88839;-80
2023/07/20 10:56:31;;;;;;;3.40;0.85;;;26.00;55.90;;;;;;4954511;28;87802;-79
2023/07/20 10:59:16;;;;;;;1.90;0.90;;;26.30;54.10;;;;;;4954024;28;89196;-79
2023/07/20 11:01:44;;;;;;;1.38;0.70;;;26.50;51.80;;;;;;4936966;28;91818;-79
2023/07/20 11:04:09;;;;;;;2.55;0.90;;;26.60;52.20;;;;;;4936386;28;87586;-79
2023/07/20 11:06:37;;;;;;;1.77;0.70;;;26.80;49.90;;;;;;4936790;28;90354;-81
2023/07/20 11:09:15;;;;;;;1.98;1.08;;;26.90;51.60;;;;;;4954880;28;89282;-79
2023/07/20 11:11:48;;;;;;;8.48;1.90;;;26.90;48.50;;;;;;4936078;28;96659;-79
2023/07/20 11:14:23;;;;;;;15.80;3.92;;;26.80;50.00;;;;;;4955275;28;87135;-79
2023/07/20 11:16:51;;;;;;;3.28;0.70;;;27.00;51.40;;;;;;4955133;28;87130;-79
2023/07/20 11:19:25;;;;;;;2.33;0.87;;;27.10;52.50;;;;;;4950456;28;88235;-79
2023/07/20 11:21:58;;;;;;;1.30;0.80;;;27.20;52.10;;;;;;4952030;28;94155;-79
2023/07/20 11:24:24;;;;;;;2.05;0.70;;;27.10;49.50;;;;;;4954191;28;88394;-79
2023/07/20 11:26:51;;;;;;;2.00;1.00;;;27.00;49.10;;;;;;4937219;28;91092;-79
2023/07/20 11:29:19;;;;;;;1.80;0.98;;;26.80;48.20;;;;;;4936189;28;90990;-79
2023/07/20 11:31:46;;;;;;;2.95;0.90;;;26.50;49.00;;;;;;4935306;28;91230;-79
2023/07/20 11:34:16;;;;;;;3.92;0.90;;;26.40;49.70;;;;;;4954752;28;87675;-79
2023/07/20 11:36:44;;;;;;;4.28;1.27;;;26.20;49.70;;;;;;4954562;28;87802;-79
2023/07/20 11:39:11;;;;;;;1.65;0.75;;;26.20;50.70;;;;;;4955660;28;88447;-79
2023/07/20 11:41:40;;;;;;;4.22;0.90;;;26.20;49.50;;;;;;4954045;28;88836;-79
2023/07/20 11:44:07;;;;;;;3.03;0.85;;;26.10;50.30;;;;;;4953569;28;87259;-79
2023/07/20 11:46:34;;;;;;;2.53;0.77;;;26.10;50.70;;;;;;4936536;28;90295;-79
2023/07/20 11:49:00;;;;;;;1.70;0.90;;;26.20;53.20;;;;;;4953091;28;89223;-79
2023/07/20 11:51:30;;;;;;;1.35;0.80;;;26.40;49.20;;;;;;4955370;28;89789;-79
2023/07/20 11:53:57;;;;;;;2.88;0.88;;;26.40;49.70;;;;;;4953841;28;87694;-79
2023/07/20 11:56:24;;;;;;;0.98;0.80;;;26.40;50.70;;;;;;4952021;28;88028;-79
2023/07/20 11:58:50;;;;;;;4.85;0.90;;;26.40;48.70;;;;;;4952726;28;89767;-79
2023/07/20 12:01:17;;;;;;;1.10;0.70;;;26.40;49.30;;;;;;4953423;28;88000;-79
2023/07/20 12:03:43;;;;;;;2.60;0.65;;;26.40;50.00;;;;;;4936041;28;88077;-78
2023/07/20 12:06:13;;;;;;;2.17;0.70;;;26.40;47.60;;;;;;4955226;28;87596;-78
2023/07/20 12:08:40;;;;;;;2.17;0.70;;;26.50;50.00;;;;;;4954040;28;88740;-79
2023/07/20 12:11:07;;;;;;;2.83;1.10;;;26.70;50.20;;;;;;4953864;28;88387;-79
2023/07/20 12:13:43;;;;;;;2.00;0.80;;;26.90;47.90;;;;;;4935922;28;88554;-80
2023/07/20 12:16:16;;;;;;;1.88;0.82;;;26.90;48.20;;;;;;4953445;28;88832;-79
2023/07/20 12:18:43;;;;;;;1.77;0.70;;;27.20;49.20;;;;;;4936332;28;91531;-80
2023/07/20 12:21:09;;;;;;;2.00;0.65;;;27.50;48.70;;;;;;4943644;28;91070;-80
2023/07/20 12:23:39;;;;;;;1.80;0.80;;;27.80;47.70;;;;;;4955139;28;87481;-78
2023/07/20 12:26:09;;;;;;;3.40;0.82;;;28.00;46.30;;;;;;4953311;28;87910;-79
2023/07/20 12:28:42;;;;;;;2.15;1.08;;;28.10;48.50;;;;;;4953718;28;88850;-79
2023/07/20 12:31:10;;;;;;;2.23;0.73;;;28.10;48.10;;;;;;4954797;28;87466;-80
2023/07/20 12:33:37;;;;;;;3.10;0.90;;;28.30;47.90;;;;;;4938353;28;87643;-79
2023/07/20 12:36:04;;;;;;;1.55;0.60;;;28.30;44.90;;;;;;4958032;28;87945;-80
2023/07/20 12:38:30;;;;;;;1.58;0.40;;;28.20;44.40;;;;;;4956030;28;90031;-79
2023/07/20 12:40:56;;;;;;;5.30;1.25;;;28.10;47.00;;;;;;4946873;28;92465;-80
2023/07/20 12:43:22;;;;;;;2.03;0.65;;;28.00;44.70;;;;;;4944259;28;87753;-79
2023/07/20 12:45:48;;;;;;;6.10;0.95;;;27.90;44.10;;;;;;4937074;28;89145;-80
2023/07/20 12:48:13;;;;;;;2.47;0.43;;;27.80;44.00;;;;;;4956436;28;89688;-79
2023/07/20 12:50:43;;;;;;;0.75;0.57;;;27.90;45.10;;;;;;4936281;28;89657;-82